Flight Track Log - Related Links

Times and Time Zones

All times are in EDT time to prevent confusion due to time zone crossing. See the SKW4562 flight status page for this flight to view local times or setup timezone preferences in your user account.

Time Position Orientation Groundspeed Altitude Reporting Facility
EDT Latitude Longitude Course Direction KTS MPH feet Rate Location/Type
Wed 06:47:10 AM 47.9642 -97.1828 137° Southeast 141 162 1,700  Level Minneapolis Center
Wed 06:48:18 AM 47.9917 -97.1422 45° Northeast 215 247 3,900 2,016 Climbing Minneapolis Center
Wed 06:49:18 AM 47.9289 -97.1331 174° South 246 283 6,000 2,083 Climbing Minneapolis Center
Wed 06:50:00 AM 47.6219 -96.7235 170° South  Level Estimated
Wed 06:50:19 AM 47.8536 -97.1589 193° South 262 302 8,100  Level Minneapolis Center
Wed 06:51:00 AM 47.5402 -96.6119 180° South  Level Estimated
Wed 06:51:19 AM 47.7703 -97.1364 170° South 289 333 10,400  Level Minneapolis Center
Wed 06:52:00 AM 47.4585 -96.5005 137° Southeast  Level Estimated
Wed 06:52:20 AM 47.6775 -97.1083 168° South 311 358 12,300  Level Minneapolis Center
Wed 06:53:20 AM 47.5747 -97.0789 169° South 354 407 13,800 1,438 Climbing Minneapolis Center
Wed 06:54:21 AM 47.4997 -96.9931 142° Southeast 362 417 15,200 1,488 Climbing Minneapolis Center
Wed 06:55:21 AM 47.4397 -96.8697 126° Southeast 358 412 16,800 1,300 Climbing Minneapolis Center
Wed 06:56:21 AM 47.3817 -96.7556 127° Southeast 358 412 17,800 992 Climbing Minneapolis Center
Wed 06:57:22 AM 47.3275 -96.6464 126° Southeast 363 418 18,800 942 Climbing Minneapolis Center
Wed 06:58:22 AM 47.2653 -96.5242 127° Southeast 367 422 19,700 1,041 Climbing Minneapolis Center
Wed 06:59:23 AM 47.2006 -96.4008 128° Southeast 375 432 20,900 1,190 Climbing Minneapolis Center
Wed 07:00:23 AM 47.1364 -96.2767 127° Southeast 380 437 22,100 1,091 Climbing Minneapolis Center
Wed 07:01:24 AM 47.0717 -96.1483 126° Southeast 387 445 23,100 992 Climbing Minneapolis Center
Wed 07:02:24 AM 47.0053 -96.0192 127° Southeast 395 455 24,100 893 Climbing Minneapolis Center
Wed 07:03:25 AM 46.9386 -95.8911 127° Southeast 397 457 24,900 446 Climbing Minneapolis Center
Wed 07:04:25 AM 46.8589 -95.7372 127° Southeast 408 470 25,000 50 Climbing Minneapolis Center
Wed 07:05:26 AM 46.7889 -95.6014 127° Southeast 419 482 25,000  Level Minneapolis Center
Wed 07:06:26 AM 46.7108 -95.4578 128° Southeast 429 494 25,000  Level Minneapolis Center
Wed 07:07:27 AM 46.6431 -95.3256 127° Southeast 429 494 25,000  Level Minneapolis Center
Wed 07:08:27 AM 46.5692 -95.1867 128° Southeast 431 496 25,000  Level Minneapolis Center
Wed 07:09:28 AM 46.4936 -95.0478 128° Southeast 434 499 25,000  Level Minneapolis Center
Wed 07:10:29 AM 46.4178 -94.9069 128° Southeast 443 510 25,000  Level Minneapolis Center
Wed 07:11:29 AM 46.3439 -94.7686 128° Southeast 440 506 25,000  Level Minneapolis Center
Wed 07:12:30 AM 46.2694 -94.6322 128° Southeast 439 505 25,000  Level Minneapolis Center
Wed 07:13:31 AM 46.1906 -94.4869 128° Southeast 438 504 25,000  Level Minneapolis Center
Wed 07:14:31 AM 46.1161 -94.3503 128° Southeast 438 504 25,000  Level Minneapolis Center
Wed 07:15:32 AM 46.0406 -94.2158 129° Southeast 437 503 25,000  Level Minneapolis Center
Wed 07:16:33 AM 45.9672 -94.0806 128° Southeast 435 501 25,000  Level Minneapolis Center
Wed 07:17:36 AM 45.8922 -93.9458 129° Southeast 435 501 25,000  Level Minneapolis Center
Wed 07:18:36 AM 45.8175 -93.8136 129° Southeast 433 498 25,000 -50 Level Minneapolis Center
Wed 07:19:37 AM 45.7339 -93.6897 134° Southeast 436 502 24,900 -1,525 Descending Minneapolis Center
Wed 07:20:38 AM 45.5967 -93.6150 159° South 445 512 21,900 -2,803 Descending Minneapolis Center
Wed 07:21:39 AM 45.4903 -93.5556 159° South 421 484 19,200 -2,754 Descending Minneapolis Center
Wed 07:22:40 AM 45.3850 -93.5003 160° South 406 467 16,300 -2,777 Descending Minneapolis Center
Wed 07:23:40 AM 45.2814 -93.4450 159° South 402 463 13,600 -2,579 Descending Minneapolis Center
Wed 07:24:41 AM 45.1831 -93.3922 159° South 382 440 11,100 -1,525 Descending Minneapolis Center
Wed 07:25:42 AM 45.1014 -93.3489 159° South 312 359 10,500 -787 Descending Minneapolis Center
Wed 07:26:43 AM 45.0283 -93.3092 159° South 285 328 9,500 -984 Descending Minneapolis Center
Wed 07:27:44 AM 44.9756 -93.2286 133° Southeast 282 325 8,500 -984 Descending Minneapolis Center
Wed 07:28:45 AM 44.9350 -93.1306 120° Southeast 285 328 7,500 -1,082 Descending Minneapolis Center
Wed 07:29:46 AM 44.8997 -93.0283 116° Southeast 286 329 6,300 -1,240 Descending Minneapolis Center
Wed 07:30:46 AM 44.8672 -92.9297 115° Southeast 279 321 5,000 -1,140 Descending Minneapolis Center
Wed 07:31:47 AM 44.8050 -92.8933 157° South 278 320 4,000 -492 Descending Minneapolis Center
Wed 07:32:48 AM 44.7894 -92.9767 255° West 225 259 4,000 -344 Level Minneapolis Center
Wed 07:33:49 AM 44.8192 -93.0528 299° West 226 260 3,300 -885 Descending Minneapolis Center
Wed 07:34:50 AM 44.8475 -93.1161 302° West 148 170 2,200 -885 Descending Minneapolis Center
Wed 07:35:51 AM 44.8661 -93.1589 302° West 133 153 1,500 -689 Descending Minneapolis Center

Login

Don't have an account? Register now (free) for customized features, flight alerts, and more!